sensor_id;sensor_type;location;lat;lon;timestamp;temperature;humidity
33368;DHT22;19724;51.114;13.906;2022-11-10T00:00:53;10.60;99.90
33368;DHT22;19724;51.114;13.906;2022-11-10T00:03:19;10.60;99.90
33368;DHT22;19724;51.114;13.906;2022-11-10T00:05:45;10.50;99.90
33368;DHT22;19724;51.114;13.906;2022-11-10T00:08:11;10.60;99.90
33368;DHT22;19724;51.114;13.906;2022-11-10T00:10:38;10.50;99.90
33368;DHT22;19724;51.114;13.906;2022-11-10T00:13:32;10.50;99.90
33368;DHT22;19724;51.114;13.906;2022-11-10T00:16:03;10.50;99.90
33368;DHT22;19724;51.114;13.906;2022-11-10T00:18:47;10.50;99.90
33368;DHT22;19724;51.114;13.906;2022-11-10T00:21:14;10.50;99.90
33368;DHT22;19724;51.114;13.906;2022-11-10T00:23:40;10.50;99.90
33368;DHT22;19724;51.114;13.906;2022-11-10T00:26:17;10.50;99.90
33368;DHT22;19724;51.114;13.906;2022-11-10T00:28:43;10.50;99.90
33368;DHT22;19724;51.114;13.906;2022-11-10T00:31:10;10.40;99.90
33368;DHT22;19724;51.114;13.906;2022-11-10T00:33:37;10.40;99.90
33368;DHT22;19724;51.114;13.906;2022-11-10T00:36:03;10.50;99.90
33368;DHT22;19724;51.114;13.906;2022-11-10T00:38:29;10.50;99.90
33368;DHT22;19724;51.114;13.906;2022-11-10T00:40:57;10.50;99.90
33368;DHT22;19724;51.114;13.906;2022-11-10T00:43:23;10.50;99.90
33368;DHT22;19724;51.114;13.906;2022-11-10T00:45:48;10.50;99.90
33368;DHT22;19724;51.114;13.906;2022-11-10T00:48:14;10.50;99.90
33368;DHT22;19724;51.114;13.906;2022-11-10T00:50:40;10.50;99.90
33368;DHT22;19724;51.114;13.906;2022-11-10T00:53:06;10.50;99.90
33368;DHT22;19724;51.114;13.906;2022-11-10T00:55:31;10.50;99.90
33368;DHT22;19724;51.114;13.906;2022-11-10T00:57:57;10.50;99.90
33368;DHT22;19724;51.114;13.906;2022-11-10T01:00:23;10.60;99.90
33368;DHT22;19724;51.114;13.906;2022-11-10T01:02:48;10.50;99.90
33368;DHT22;19724;51.114;13.906;2022-11-10T01:05:14;10.50;99.90
33368;DHT22;19724;51.114;13.906;2022-11-10T01:07:40;10.50;99.90
33368;DHT22;19724;51.114;13.906;2022-11-10T01:10:06;10.50;99.90
33368;DHT22;19724;51.114;13.906;2022-11-10T01:12:31;10.50;99.90
33368;DHT22;19724;51.114;13.906;2022-11-10T01:14:57;10.50;99.90
33368;DHT22;19724;51.114;13.906;2022-11-10T01:17:23;10.50;99.90
33368;DHT22;19724;51.114;13.906;2022-11-10T01:19:48;10.50;99.90
33368;DHT22;19724;51.114;13.906;2022-11-10T01:22:14;10.50;99.90
33368;DHT22;19724;51.114;13.906;2022-11-10T01:24:39;10.50;99.90
33368;DHT22;19724;51.114;13.906;2022-11-10T01:27:05;10.60;99.90
33368;DHT22;19724;51.114;13.906;2022-11-10T01:29:30;10.50;99.90
33368;DHT22;19724;51.114;13.906;2022-11-10T01:31:56;10.50;99.90
33368;DHT22;19724;51.114;13.906;2022-11-10T01:34:21;10.50;99.90
33368;DHT22;19724;51.114;13.906;2022-11-10T01:36:47;10.50;99.90
33368;DHT22;19724;51.114;13.906;2022-11-10T01:39:13;10.50;99.90
33368;DHT22;19724;51.114;13.906;2022-11-10T01:41:38;10.50;99.90
33368;DHT22;19724;51.114;13.906;2022-11-10T01:44:21;10.50;99.90
33368;DHT22;19724;51.114;13.906;2022-11-10T01:46:48;10.50;99.90
33368;DHT22;19724;51.114;13.906;2022-11-10T01:49:16;10.50;99.90
33368;DHT22;19724;51.114;13.906;2022-11-10T01:51:55;10.50;99.90
33368;DHT22;19724;51.114;13.906;2022-11-10T01:54:25;10.50;99.90
33368;DHT22;19724;51.114;13.906;2022-11-10T01:56:54;10.50;99.90
33368;DHT22;19724;51.114;13.906;2022-11-10T01:59:25;10.60;99.90
33368;DHT22;19724;51.114;13.906;2022-11-10T02:01:54;10.50;99.90
33368;DHT22;19724;51.114;13.906;2022-11-10T02:04:21;10.50;99.90
33368;DHT22;19724;51.114;13.906;2022-11-10T02:06:48;10.40;99.90
33368;DHT22;19724;51.114;13.906;2022-11-10T02:09:14;10.40;99.90
33368;DHT22;19724;51.114;13.906;2022-11-10T02:11:41;10.40;99.90
33368;DHT22;19724;51.114;13.906;2022-11-10T02:14:07;10.40;99.90
33368;DHT22;19724;51.114;13.906;2022-11-10T02:16:33;10.30;99.90
33368;DHT22;19724;51.114;13.906;2022-11-10T02:19:15;10.40;99.90
33368;DHT22;19724;51.114;13.906;2022-11-10T02:21:41;10.20;99.90
33368;DHT22;19724;51.114;13.906;2022-11-10T02:24:07;10.30;99.90
33368;DHT22;19724;51.114;13.906;2022-11-10T02:26:34;10.20;99.90
33368;DHT22;19724;51.114;13.906;2022-11-10T02:29:00;10.20;99.90
33368;DHT22;19724;51.114;13.906;2022-11-10T02:31:26;10.20;99.90
33368;DHT22;19724;51.114;13.906;2022-11-10T02:33:51;10.20;99.90
33368;DHT22;19724;51.114;13.906;2022-11-10T02:36:17;10.10;99.90
33368;DHT22;19724;51.114;13.906;2022-11-10T02:38:43;10.10;99.90
33368;DHT22;19724;51.114;13.906;2022-11-10T02:41:08;10.10;99.90
33368;DHT22;19724;51.114;13.906;2022-11-10T02:43:35;10.10;99.90
33368;DHT22;19724;51.114;13.906;2022-11-10T02:46:02;10.10;99.90
33368;DHT22;19724;51.114;13.906;2022-11-10T02:48:28;10.00;99.90
33368;DHT22;19724;51.114;13.906;2022-11-10T02:50:53;10.00;99.90
33368;DHT22;19724;51.114;13.906;2022-11-10T02:53:19;10.10;99.90
33368;DHT22;19724;51.114;13.906;2022-11-10T02:55:44;10.00;99.90
33368;DHT22;19724;51.114;13.906;2022-11-10T02:58:11;10.00;99.90
33368;DHT22;19724;51.114;13.906;2022-11-10T03:00:36;10.00;99.90
33368;DHT22;19724;51.114;13.906;2022-11-10T03:03:02;10.00;99.90
33368;DHT22;19724;51.114;13.906;2022-11-10T03:05:29;9.90;99.90
33368;DHT22;19724;51.114;13.906;2022-11-10T03:08:00;9.80;99.90
33368;DHT22;19724;51.114;13.906;2022-11-10T03:10:27;9.80;99.90
33368;DHT22;19724;51.114;13.906;2022-11-10T03:12:58;9.80;99.90
33368;DHT22;19724;51.114;13.906;2022-11-10T03:15:25;9.80;99.90
33368;DHT22;19724;51.114;13.906;2022-11-10T03:17:51;9.70;99.90
33368;DHT22;19724;51.114;13.906;2022-11-10T03:20:18;9.70;99.90
33368;DHT22;19724;51.114;13.906;2022-11-10T03:22:43;9.70;99.90
33368;DHT22;19724;51.114;13.906;2022-11-10T03:25:10;9.60;99.90
33368;DHT22;19724;51.114;13.906;2022-11-10T03:27:36;9.60;99.90
33368;DHT22;19724;51.114;13.906;2022-11-10T03:30:03;9.60;99.90
33368;DHT22;19724;51.114;13.906;2022-11-10T03:32:29;9.50;99.90
33368;DHT22;19724;51.114;13.906;2022-11-10T03:34:54;9.50;99.90
33368;DHT22;19724;51.114;13.906;2022-11-10T03:37:20;9.50;99.90
33368;DHT22;19724;51.114;13.906;2022-11-10T03:39:46;9.50;99.90
33368;DHT22;19724;51.114;13.906;2022-11-10T03:42:11;9.60;99.90
33368;DHT22;19724;51.114;13.906;2022-11-10T03:44:37;9.50;99.90
33368;DHT22;19724;51.114;13.906;2022-11-10T03:47:03;9.40;99.90
33368;DHT22;19724;51.114;13.906;2022-11-10T03:49:29;9.40;99.90
33368;DHT22;19724;51.114;13.906;2022-11-10T03:51:55;9.40;99.90
33368;DHT22;19724;51.114;13.906;2022-11-10T03:54:21;9.30;99.90
33368;DHT22;19724;51.114;13.906;2022-11-10T03:56:46;9.30;99.90
33368;DHT22;19724;51.114;13.906;2022-11-10T03:59:12;9.20;99.90
33368;DHT22;19724;51.114;13.906;2022-11-10T04:01:37;9.20;99.90
33368;DHT22;19724;51.114;13.906;2022-11-10T04:04:03;9.10;99.90
33368;DHT22;19724;51.114;13.906;2022-11-10T04:06:28;9.10;99.90
33368;DHT22;19724;51.114;13.906;2022-11-10T04:09:13;9.00;99.90
33368;DHT22;19724;51.114;13.906;2022-11-10T04:11:38;9.00;99.90
33368;DHT22;19724;51.114;13.906;2022-11-10T04:14:22;9.00;99.90
33368;DHT22;19724;51.114;13.906;2022-11-10T04:17:06;8.80;99.90
33368;DHT22;19724;51.114;13.906;2022-11-10T04:19:34;8.80;99.90
33368;DHT22;19724;51.114;13.906;2022-11-10T04:21:59;8.70;99.90
33368;DHT22;19724;51.114;13.906;2022-11-10T04:24:25;8.70;99.90
33368;DHT22;19724;51.114;13.906;2022-11-10T04:26:51;8.60;99.90
33368;DHT22;19724;51.114;13.906;2022-11-10T04:29:18;8.60;99.90
33368;DHT22;19724;51.114;13.906;2022-11-10T04:31:44;8.50;99.90
33368;DHT22;19724;51.114;13.906;2022-11-10T04:34:12;8.50;99.90
33368;DHT22;19724;51.114;13.906;2022-11-10T04:36:40;8.50;99.90
33368;DHT22;19724;51.114;13.906;2022-11-10T04:39:07;8.50;99.90
33368;DHT22;19724;51.114;13.906;2022-11-10T04:41:34;8.50;99.90
33368;DHT22;19724;51.114;13.906;2022-11-10T04:44:00;8.50;99.90
33368;DHT22;19724;51.114;13.906;2022-11-10T04:46:29;8.50;99.90
33368;DHT22;19724;51.114;13.906;2022-11-10T04:48:56;8.50;99.90
33368;DHT22;19724;51.114;13.906;2022-11-10T04:51:24;8.60;99.90
33368;DHT22;19724;51.114;13.906;2022-11-10T04:53:50;8.70;99.90
33368;DHT22;19724;51.114;13.906;2022-11-10T04:56:17;8.70;99.90
33368;DHT22;19724;51.114;13.906;2022-11-10T04:58:44;8.80;99.90
33368;DHT22;19724;51.114;13.906;2022-11-10T05:01:14;8.80;99.90
33368;DHT22;19724;51.114;13.906;2022-11-10T05:03:41;8.80;99.90
33368;DHT22;19724;51.114;13.906;2022-11-10T05:06:08;8.90;99.90
33368;DHT22;19724;51.114;13.906;2022-11-10T05:08:35;8.90;99.90
33368;DHT22;19724;51.114;13.906;2022-11-10T05:11:01;9.00;99.90
33368;DHT22;19724;51.114;13.906;2022-11-10T05:13:27;9.00;99.90
33368;DHT22;19724;51.114;13.906;2022-11-10T05:15:53;9.10;99.90
33368;DHT22;19724;51.114;13.906;2022-11-10T05:18:18;9.10;99.90
33368;DHT22;19724;51.114;13.906;2022-11-10T05:20:44;9.20;99.90
33368;DHT22;19724;51.114;13.906;2022-11-10T05:23:10;9.20;99.90
33368;DHT22;19724;51.114;13.906;2022-11-10T05:25:54;9.20;99.90
33368;DHT22;19724;51.114;13.906;2022-11-10T05:28:20;9.30;99.90
33368;DHT22;19724;51.114;13.906;2022-11-10T05:30:46;9.30;99.90
33368;DHT22;19724;51.114;13.906;2022-11-10T05:33:12;9.30;99.90
33368;DHT22;19724;51.114;13.906;2022-11-10T05:35:38;9.30;99.90
33368;DHT22;19724;51.114;13.906;2022-11-10T05:38:03;9.30;99.90
33368;DHT22;19724;51.114;13.906;2022-11-10T05:40:30;9.30;99.90
33368;DHT22;19724;51.114;13.906;2022-11-10T05:42:56;9.30;99.90
33368;DHT22;19724;51.114;13.906;2022-11-10T05:45:24;9.40;99.90
33368;DHT22;19724;51.114;13.906;2022-11-10T05:47:50;9.40;99.90
33368;DHT22;19724;51.114;13.906;2022-11-10T05:50:17;9.40;99.90
33368;DHT22;19724;51.114;13.906;2022-11-10T05:52:45;9.40;99.90
33368;DHT22;19724;51.114;13.906;2022-11-10T05:55:13;9.40;99.90
33368;DHT22;19724;51.114;13.906;2022-11-10T05:57:44;9.50;99.90
33368;DHT22;19724;51.114;13.906;2022-11-10T06:00:12;9.50;99.90
33368;DHT22;19724;51.114;13.906;2022-11-10T06:02:38;9.50;99.90
33368;DHT22;19724;51.114;13.906;2022-11-10T06:05:04;9.50;99.90
33368;DHT22;19724;51.114;13.906;2022-11-10T06:07:29;9.50;99.90
33368;DHT22;19724;51.114;13.906;2022-11-10T06:09:55;9.50;99.90
33368;DHT22;19724;51.114;13.906;2022-11-10T06:12:21;9.50;99.90
33368;DHT22;19724;51.114;13.906;2022-11-10T06:14:49;9.50;99.90
33368;DHT22;19724;51.114;13.906;2022-11-10T06:17:16;9.50;99.90
33368;DHT22;19724;51.114;13.906;2022-11-10T06:19:42;9.50;99.90
33368;DHT22;19724;51.114;13.906;2022-11-10T06:22:08;9.60;99.90
33368;DHT22;19724;51.114;13.906;2022-11-10T06:24:34;9.50;99.90
33368;DHT22;19724;51.114;13.906;2022-11-10T06:26:59;9.60;99.90
33368;DHT22;19724;51.114;13.906;2022-11-10T06:29:25;9.60;99.90
33368;DHT22;19724;51.114;13.906;2022-11-10T06:31:51;9.60;99.90
33368;DHT22;19724;51.114;13.906;2022-11-10T06:34:17;9.60;99.90
33368;DHT22;19724;51.114;13.906;2022-11-10T06:36:43;9.60;99.90
33368;DHT22;19724;51.114;13.906;2022-11-10T06:39:08;9.70;99.90
33368;DHT22;19724;51.114;13.906;2022-11-10T06:41:34;9.70;99.90
33368;DHT22;19724;51.114;13.906;2022-11-10T06:43:59;9.60;99.90
33368;DHT22;19724;51.114;13.906;2022-11-10T06:46:25;9.70;99.90
33368;DHT22;19724;51.114;13.906;2022-11-10T06:48:51;9.70;99.90
33368;DHT22;19724;51.114;13.906;2022-11-10T06:51:17;9.70;99.90
33368;DHT22;19724;51.114;13.906;2022-11-10T06:53:43;9.80;99.90
33368;DHT22;19724;51.114;13.906;2022-11-10T06:56:08;9.80;99.90
33368;DHT22;19724;51.114;13.906;2022-11-10T06:58:34;9.80;99.90
33368;DHT22;19724;51.114;13.906;2022-11-10T07:01:00;9.90;99.90
33368;DHT22;19724;51.114;13.906;2022-11-10T07:03:26;9.90;99.90
33368;DHT22;19724;51.114;13.906;2022-11-10T07:05:52;9.90;99.90
33368;DHT22;19724;51.114;13.906;2022-11-10T07:08:18;9.90;99.90
33368;DHT22;19724;51.114;13.906;2022-11-10T07:10:50;10.00;99.90
33368;DHT22;19724;51.114;13.906;2022-11-10T07:13:17;10.00;99.90
33368;DHT22;19724;51.114;13.906;2022-11-10T07:15:42;10.10;99.90
33368;DHT22;19724;51.114;13.906;2022-11-10T07:18:08;10.00;99.90
33368;DHT22;19724;51.114;13.906;2022-11-10T07:20:34;10.10;99.90
33368;DHT22;19724;51.114;13.906;2022-11-10T07:23:01;10.10;99.90
33368;DHT22;19724;51.114;13.906;2022-11-10T07:25:29;10.20;99.90
33368;DHT22;19724;51.114;13.906;2022-11-10T07:27:56;10.20;99.90
33368;DHT22;19724;51.114;13.906;2022-11-10T07:30:22;10.20;99.90
33368;DHT22;19724;51.114;13.906;2022-11-10T07:33:03;10.30;99.90
33368;DHT22;19724;51.114;13.906;2022-11-10T07:35:29;10.30;99.90
33368;DHT22;19724;51.114;13.906;2022-11-10T07:37:57;10.30;99.90
33368;DHT22;19724;51.114;13.906;2022-11-10T07:40:25;10.40;99.90
33368;DHT22;19724;51.114;13.906;2022-11-10T07:42:50;10.40;99.90
33368;DHT22;19724;51.114;13.906;2022-11-10T07:45:16;10.40;99.90
33368;DHT22;19724;51.114;13.906;2022-11-10T07:47:42;10.50;99.90
33368;DHT22;19724;51.114;13.906;2022-11-10T07:50:07;10.50;99.90
33368;DHT22;19724;51.114;13.906;2022-11-10T07:52:34;10.50;99.90
33368;DHT22;19724;51.114;13.906;2022-11-10T07:54:59;10.50;99.90
33368;DHT22;19724;51.114;13.906;2022-11-10T07:57:25;10.60;99.90
33368;DHT22;19724;51.114;13.906;2022-11-10T07:59:51;10.60;99.90
33368;DHT22;19724;51.114;13.906;2022-11-10T08:02:16;10.60;99.90
33368;DHT22;19724;51.114;13.906;2022-11-10T08:04:42;10.60;99.90
33368;DHT22;19724;51.114;13.906;2022-11-10T08:07:07;10.70;99.90
33368;DHT22;19724;51.114;13.906;2022-11-10T08:09:33;10.70;99.90
33368;DHT22;19724;51.114;13.906;2022-11-10T08:11:59;10.70;99.90
33368;DHT22;19724;51.114;13.906;2022-11-10T08:14:24;10.80;99.90
33368;DHT22;19724;51.114;13.906;2022-11-10T08:16:50;10.80;99.90
33368;DHT22;19724;51.114;13.906;2022-11-10T08:19:16;10.80;99.90
33368;DHT22;19724;51.114;13.906;2022-11-10T08:21:42;10.80;99.90
33368;DHT22;19724;51.114;13.906;2022-11-10T08:24:08;10.90;99.90
33368;DHT22;19724;51.114;13.906;2022-11-10T08:26:33;10.90;99.90
33368;DHT22;19724;51.114;13.906;2022-11-10T08:28:59;10.90;99.90
33368;DHT22;19724;51.114;13.906;2022-11-10T08:31:24;11.00;99.90
33368;DHT22;19724;51.114;13.906;2022-11-10T08:33:50;11.00;99.90
33368;DHT22;19724;51.114;13.906;2022-11-10T08:36:16;11.10;99.90
33368;DHT22;19724;51.114;13.906;2022-11-10T08:38:42;11.10;99.90
33368;DHT22;19724;51.114;13.906;2022-11-10T08:41:08;11.20;99.90
33368;DHT22;19724;51.114;13.906;2022-11-10T08:43:33;11.20;99.90
33368;DHT22;19724;51.114;13.906;2022-11-10T08:45:59;11.20;99.90
33368;DHT22;19724;51.114;13.906;2022-11-10T08:48:26;11.30;99.90
33368;DHT22;19724;51.114;13.906;2022-11-10T08:50:52;11.30;99.90
33368;DHT22;19724;51.114;13.906;2022-11-10T08:53:22;11.40;99.90
33368;DHT22;19724;51.114;13.906;2022-11-10T08:55:49;11.50;99.90
33368;DHT22;19724;51.114;13.906;2022-11-10T08:58:17;11.60;99.90
33368;DHT22;19724;51.114;13.906;2022-11-10T09:00:43;12.00;99.90
33368;DHT22;19724;51.114;13.906;2022-11-10T09:03:20;12.40;99.90
33368;DHT22;19724;51.114;13.906;2022-11-10T09:05:47;12.70;99.90
33368;DHT22;19724;51.114;13.906;2022-11-10T09:08:14;12.70;99.90
33368;DHT22;19724;51.114;13.906;2022-11-10T09:10:45;12.90;99.90
33368;DHT22;19724;51.114;13.906;2022-11-10T09:13:12;12.90;99.90
33368;DHT22;19724;51.114;13.906;2022-11-10T09:15:38;12.90;99.90
33368;DHT22;19724;51.114;13.906;2022-11-10T09:18:05;13.10;99.90
33368;DHT22;19724;51.114;13.906;2022-11-10T09:20:33;13.30;99.90
33368;DHT22;19724;51.114;13.906;2022-11-10T09:23:07;13.90;99.90
33368;DHT22;19724;51.114;13.906;2022-11-10T09:25:34;14.30;99.90
33368;DHT22;19724;51.114;13.906;2022-11-10T09:28:00;14.90;99.90
33368;DHT22;19724;51.114;13.906;2022-11-10T09:30:26;15.10;99.90
33368;DHT22;19724;51.114;13.906;2022-11-10T09:32:57;15.20;99.90
33368;DHT22;19724;51.114;13.906;2022-11-10T09:35:24;15.00;99.90
33368;DHT22;19724;51.114;13.906;2022-11-10T09:37:50;14.70;99.90
33368;DHT22;19724;51.114;13.906;2022-11-10T09:43:12;14.30;99.90
33368;DHT22;19724;51.114;13.906;2022-11-10T09:45:41;14.20;99.90
33368;DHT22;19724;51.114;13.906;2022-11-10T09:48:29;14.10;99.90
33368;DHT22;19724;51.114;13.906;2022-11-10T09:53:57;14.50;99.90
33368;DHT22;19724;51.114;13.906;2022-11-10T09:56:35;14.70;99.90
33368;DHT22;19724;51.114;13.906;2022-11-10T09:59:18;14.80;99.90
33368;DHT22;19724;51.114;13.906;2022-11-10T10:01:53;15.10;99.90
33368;DHT22;19724;51.114;13.906;2022-11-10T10:15:22;15.90;99.90
33368;DHT22;19724;51.114;13.906;2022-11-10T10:17:58;15.90;99.90
33368;DHT22;19724;51.114;13.906;2022-11-10T10:20:39;15.90;99.90
33368;DHT22;19724;51.114;13.906;2022-11-10T10:26:09;16.30;99.90
33368;DHT22;19724;51.114;13.906;2022-11-10T10:28:37;16.50;99.90
33368;DHT22;19724;51.114;13.906;2022-11-10T10:31:13;16.40;99.90
33368;DHT22;19724;51.114;13.906;2022-11-10T10:33:41;16.40;99.90
33368;DHT22;19724;51.114;13.906;2022-11-10T10:36:22;16.50;99.90
33368;DHT22;19724;51.114;13.906;2022-11-10T10:38:51;16.50;99.90
33368;DHT22;19724;51.114;13.906;2022-11-10T10:41:30;16.60;99.90
33368;DHT22;19724;51.114;13.906;2022-11-10T10:43:59;16.70;99.90
33368;DHT22;19724;51.114;13.906;2022-11-10T10:46:25;16.70;99.90
33368;DHT22;19724;51.114;13.906;2022-11-10T10:49:25;16.50;99.90
33368;DHT22;19724;51.114;13.906;2022-11-10T10:52:11;16.70;99.90
33368;DHT22;19724;51.114;13.906;2022-11-10T10:54:38;17.10;99.90
33368;DHT22;19724;51.114;13.906;2022-11-10T10:57:18;17.30;99.90
33368;DHT22;19724;51.114;13.906;2022-11-10T10:59:44;17.50;99.90
33368;DHT22;19724;51.114;13.906;2022-11-10T11:02:36;17.70;99.90
33368;DHT22;19724;51.114;13.906;2022-11-10T11:05:13;17.80;99.90
33368;DHT22;19724;51.114;13.906;2022-11-10T11:07:39;18.10;99.90
33368;DHT22;19724;51.114;13.906;2022-11-10T11:10:27;18.40;99.90
33368;DHT22;19724;51.114;13.906;2022-11-10T11:12:53;18.40;99.90
33368;DHT22;19724;51.114;13.906;2022-11-10T11:15:27;18.50;99.90
33368;DHT22;19724;51.114;13.906;2022-11-10T11:17:58;18.40;99.90
33368;DHT22;19724;51.114;13.906;2022-11-10T11:23:10;18.10;99.90
33368;DHT22;19724;51.114;13.906;2022-11-10T11:25:41;17.70;99.90
33368;DHT22;19724;51.114;13.906;2022-11-10T11:28:37;18.00;99.90
33368;DHT22;19724;51.114;13.906;2022-11-10T11:34:31;18.70;99.90
33368;DHT22;19724;51.114;13.906;2022-11-10T11:37:26;18.70;99.90
33368;DHT22;19724;51.114;13.906;2022-11-10T11:50:50;19.00;99.90
33368;DHT22;19724;51.114;13.906;2022-11-10T11:56:25;19.20;99.90
33368;DHT22;19724;51.114;13.906;2022-11-10T11:59:13;19.30;99.90
33368;DHT22;19724;51.114;13.906;2022-11-10T12:13:09;18.60;99.90
33368;DHT22;19724;51.114;13.906;2022-11-10T12:18:35;18.30;99.90
33368;DHT22;19724;51.114;13.906;2022-11-10T12:24:14;18.40;99.90
33368;DHT22;19724;51.114;13.906;2022-11-10T12:38:04;17.90;99.90
33368;DHT22;19724;51.114;13.906;2022-11-10T12:40:44;17.50;99.90
33368;DHT22;19724;51.114;13.906;2022-11-10T12:43:19;17.20;99.90
33368;DHT22;19724;51.114;13.906;2022-11-10T12:45:52;17.10;99.90
33368;DHT22;19724;51.114;13.906;2022-11-10T12:48:19;17.30;99.90
33368;DHT22;19724;51.114;13.906;2022-11-10T12:53:38;17.50;99.90
33368;DHT22;19724;51.114;13.906;2022-11-10T12:56:17;17.40;99.90
33368;DHT22;19724;51.114;13.906;2022-11-10T12:58:45;17.30;99.90
33368;DHT22;19724;51.114;13.906;2022-11-10T13:01:13;17.20;99.90
33368;DHT22;19724;51.114;13.906;2022-11-10T13:03:53;17.10;99.90
33368;DHT22;19724;51.114;13.906;2022-11-10T13:06:30;17.00;99.90
33368;DHT22;19724;51.114;13.906;2022-11-10T13:08:57;16.90;99.90
33368;DHT22;19724;51.114;13.906;2022-11-10T13:11:35;16.70;99.90
33368;DHT22;19724;51.114;13.906;2022-11-10T13:14:21;16.60;99.90
33368;DHT22;19724;51.114;13.906;2022-11-10T13:16:52;16.40;99.90
33368;DHT22;19724;51.114;13.906;2022-11-10T13:24:35;16.00;99.90
33368;DHT22;19724;51.114;13.906;2022-11-10T13:29:55;15.80;99.90
33368;DHT22;19724;51.114;13.906;2022-11-10T13:32:25;15.80;99.90
33368;DHT22;19724;51.114;13.906;2022-11-10T13:34:51;15.70;99.90
33368;DHT22;19724;51.114;13.906;2022-11-10T13:45:41;15.60;99.90
33368;DHT22;19724;51.114;13.906;2022-11-10T13:58:28;15.30;99.90
33368;DHT22;19724;51.114;13.906;2022-11-10T14:01:22;15.20;99.90
33368;DHT22;19724;51.114;13.906;2022-11-10T14:03:54;15.20;99.90
33368;DHT22;19724;51.114;13.906;2022-11-10T14:09:03;15.10;99.90
33368;DHT22;19724;51.114;13.906;2022-11-10T14:11:36;15.20;99.90
33368;DHT22;19724;51.114;13.906;2022-11-10T14:16:52;15.20;99.90
33368;DHT22;19724;51.114;13.906;2022-11-10T14:19:39;15.20;99.90
33368;DHT22;19724;51.114;13.906;2022-11-10T14:22:40;15.10;99.90
33368;DHT22;19724;51.114;13.906;2022-11-10T14:25:37;15.10;99.90
33368;DHT22;19724;51.114;13.906;2022-11-10T14:30:52;15.00;99.90
33368;DHT22;19724;51.114;13.906;2022-11-10T14:33:19;14.90;99.90
33368;DHT22;19724;51.114;13.906;2022-11-10T14:35:59;14.80;99.90
33368;DHT22;19724;51.114;13.906;2022-11-10T14:38:31;14.80;99.90
33368;DHT22;19724;51.114;13.906;2022-11-10T14:41:03;14.80;99.90
33368;DHT22;19724;51.114;13.906;2022-11-10T14:43:34;14.80;99.90
33368;DHT22;19724;51.114;13.906;2022-11-10T14:46:03;14.80;99.90
33368;DHT22;19724;51.114;13.906;2022-11-10T14:48:34;14.70;99.90
33368;DHT22;19724;51.114;13.906;2022-11-10T14:51:02;14.70;99.90
33368;DHT22;19724;51.114;13.906;2022-11-10T14:53:34;14.70;99.90
33368;DHT22;19724;51.114;13.906;2022-11-10T14:56:01;14.60;99.90
33368;DHT22;19724;51.114;13.906;2022-11-10T14:58:36;14.60;99.90
33368;DHT22;19724;51.114;13.906;2022-11-10T15:01:05;14.60;99.90
33368;DHT22;19724;51.114;13.906;2022-11-10T15:03:39;14.60;99.90
33368;DHT22;19724;51.114;13.906;2022-11-10T15:06:08;14.60;99.90
33368;DHT22;19724;51.114;13.906;2022-11-10T15:08:34;14.50;99.90
33368;DHT22;19724;51.114;13.906;2022-11-10T15:11:00;14.40;99.90
33368;DHT22;19724;51.114;13.906;2022-11-10T15:15:52;14.30;99.90
33368;DHT22;19724;51.114;13.906;2022-11-10T15:18:37;14.30;99.90
33368;DHT22;19724;51.114;13.906;2022-11-10T15:21:05;14.20;99.90
33368;DHT22;19724;51.114;13.906;2022-11-10T15:23:38;14.20;99.90
33368;DHT22;19724;51.114;13.906;2022-11-10T15:26:12;14.00;99.90
33368;DHT22;19724;51.114;13.906;2022-11-10T15:28:42;14.00;99.90
33368;DHT22;19724;51.114;13.906;2022-11-10T15:31:25;13.90;99.90
33368;DHT22;19724;51.114;13.906;2022-11-10T15:33:54;13.80;99.90
33368;DHT22;19724;51.114;13.906;2022-11-10T15:41:49;13.70;99.90
33368;DHT22;19724;51.114;13.906;2022-11-10T15:44:18;13.60;99.90
33368;DHT22;19724;51.114;13.906;2022-11-10T15:46:45;13.50;99.90
33368;DHT22;19724;51.114;13.906;2022-11-10T15:49:28;13.50;99.90
33368;DHT22;19724;51.114;13.906;2022-11-10T15:52:00;13.40;99.90
33368;DHT22;19724;51.114;13.906;2022-11-10T15:54:30;13.30;99.90
33368;DHT22;19724;51.114;13.906;2022-11-10T15:56:57;13.30;99.90
33368;DHT22;19724;51.114;13.906;2022-11-10T15:59:23;13.30;99.90
33368;DHT22;19724;51.114;13.906;2022-11-10T16:01:48;13.20;99.90
33368;DHT22;19724;51.114;13.906;2022-11-10T16:04:15;13.20;99.90
33368;DHT22;19724;51.114;13.906;2022-11-10T16:06:40;13.10;99.90
33368;DHT22;19724;51.114;13.906;2022-11-10T16:09:06;13.10;99.90
33368;DHT22;19724;51.114;13.906;2022-11-10T16:11:33;13.00;99.90
33368;DHT22;19724;51.114;13.906;2022-11-10T16:14:03;12.90;99.90
33368;DHT22;19724;51.114;13.906;2022-11-10T16:16:30;12.80;99.90
33368;DHT22;19724;51.114;13.906;2022-11-10T16:18:56;12.80;99.90
33368;DHT22;19724;51.114;13.906;2022-11-10T16:21:23;12.70;99.90
33368;DHT22;19724;51.114;13.906;2022-11-10T16:23:49;12.70;99.90
33368;DHT22;19724;51.114;13.906;2022-11-10T16:26:17;12.60;99.90
33368;DHT22;19724;51.114;13.906;2022-11-10T16:28:44;12.50;99.90
33368;DHT22;19724;51.114;13.906;2022-11-10T16:31:13;12.50;99.90
33368;DHT22;19724;51.114;13.906;2022-11-10T16:33:40;12.40;99.90
33368;DHT22;19724;51.114;13.906;2022-11-10T16:36:22;12.40;99.90
33368;DHT22;19724;51.114;13.906;2022-11-10T16:38:48;12.30;99.90
33368;DHT22;19724;51.114;13.906;2022-11-10T16:41:14;12.30;99.90
33368;DHT22;19724;51.114;13.906;2022-11-10T16:43:40;12.30;99.90
33368;DHT22;19724;51.114;13.906;2022-11-10T16:46:16;12.30;99.90
33368;DHT22;19724;51.114;13.906;2022-11-10T16:48:44;12.20;99.90
33368;DHT22;19724;51.114;13.906;2022-11-10T16:51:11;12.20;99.90
33368;DHT22;19724;51.114;13.906;2022-11-10T16:53:39;12.20;99.90
33368;DHT22;19724;51.114;13.906;2022-11-10T16:56:06;12.10;99.90
33368;DHT22;19724;51.114;13.906;2022-11-10T16:58:36;12.10;99.90
33368;DHT22;19724;51.114;13.906;2022-11-10T17:01:02;12.10;99.90
33368;DHT22;19724;51.114;13.906;2022-11-10T17:03:38;12.00;99.90
33368;DHT22;19724;51.114;13.906;2022-11-10T17:06:04;12.00;99.90
33368;DHT22;19724;51.114;13.906;2022-11-10T17:08:32;12.00;99.90
33368;DHT22;19724;51.114;13.906;2022-11-10T17:10:58;12.00;99.90
33368;DHT22;19724;51.114;13.906;2022-11-10T17:13:24;11.90;99.90
33368;DHT22;19724;51.114;13.906;2022-11-10T17:16:20;11.90;99.90
33368;DHT22;19724;51.114;13.906;2022-11-10T17:18:43;11.80;99.90
33368;DHT22;19724;51.114;13.906;2022-11-10T17:21:14;11.90;99.90
33368;DHT22;19724;51.114;13.906;2022-11-10T17:23:40;11.80;99.90
33368;DHT22;19724;51.114;13.906;2022-11-10T17:26:08;11.80;99.90